createdAt,value
2022-08-18T00:01:16.107Z,4.13
2022-08-18T00:03:56.734Z,3.88
2022-08-18T00:06:29.557Z,3.95
2022-08-18T00:09:01.605Z,3.75
2022-08-18T00:11:41.726Z,3.90
2022-08-18T00:14:19.703Z,4.00
2022-08-18T00:16:52.716Z,3.78
2022-08-18T00:19:45.508Z,3.90
2022-08-18T00:22:15.021Z,3.85
2022-08-18T00:24:47.728Z,3.85
2022-08-18T00:27:23.411Z,3.85
2022-08-18T00:29:53.019Z,4.30
2022-08-18T00:32:23.791Z,4.32
2022-08-18T00:34:52.744Z,3.65
2022-08-18T00:37:22.789Z,4.20
2022-08-18T00:39:54.291Z,4.15
2022-08-18T00:42:28.919Z,3.65
2022-08-18T00:45:02.361Z,3.92
2022-08-18T00:47:33.046Z,3.70
2022-08-18T00:50:15.387Z,4.70
2022-08-18T00:52:47.626Z,3.80
2022-08-18T00:55:19.572Z,3.78
2022-08-18T00:57:50.363Z,4.07
2022-08-18T01:00:19.384Z,3.45
2022-08-18T01:02:51.861Z,4.18
2022-08-18T01:05:25.400Z,3.83
2022-08-18T01:07:54.061Z,3.92
2022-08-18T01:10:25.452Z,3.97
2022-08-18T01:12:55.535Z,4.82
2022-08-18T01:15:29.634Z,4.13
2022-08-18T01:18:17.264Z,4.10
2022-08-18T01:21:09.246Z,4.45
2022-08-18T01:23:39.599Z,3.92
2022-08-18T01:26:09.465Z,4.60
2022-08-18T01:28:40.322Z,4.82
2022-08-18T01:31:10.369Z,4.55
2022-08-18T01:33:42.264Z,3.92
2022-08-18T01:36:16.735Z,3.90
2022-08-18T01:38:50.406Z,4.20
2022-08-18T01:41:26.621Z,4.50
2022-08-18T01:43:59.186Z,4.25
2022-08-18T01:46:28.853Z,4.47
2022-08-18T01:48:59.891Z,3.90
2022-08-18T01:51:38.245Z,4.00
2022-08-18T01:54:13.919Z,4.47
2022-08-18T01:56:43.879Z,3.65
2022-08-18T01:59:15.026Z,4.07
2022-08-18T02:01:48.859Z,4.05
2022-08-18T02:04:36.432Z,4.53
2022-08-18T02:07:10.485Z,4.28
2022-08-18T02:09:42.512Z,3.67
2022-08-18T02:12:12.258Z,4.28
2022-08-18T02:14:41.005Z,4.32
2022-08-18T02:17:11.165Z,4.05
2022-08-18T02:19:42.385Z,4.35
2022-08-18T02:22:13.433Z,4.38
2022-08-18T02:24:43.388Z,3.95
2022-08-18T02:27:13.300Z,4.28
2022-08-18T02:29:41.966Z,4.28
2022-08-18T02:32:10.516Z,4.32
2022-08-18T02:34:39.005Z,4.53
2022-08-18T02:37:09.924Z,4.22
2022-08-18T02:39:41.542Z,4.68
2022-08-18T02:42:16.204Z,4.68
2022-08-18T02:44:44.782Z,5.10
2022-08-18T02:47:13.356Z,4.57
2022-08-18T02:49:42.171Z,5.10
2022-08-18T02:52:11.518Z,4.78
2022-08-18T02:54:40.151Z,4.70
2022-08-18T02:57:11.291Z,5.10
2022-08-18T02:59:40.975Z,4.70
2022-08-18T03:02:10.805Z,4.70
2022-08-18T03:04:39.261Z,5.10
2022-08-18T03:07:09.688Z,4.90
2022-08-18T03:09:38.197Z,5.25
2022-08-18T03:12:08.673Z,5.18
2022-08-18T03:14:40.613Z,4.50
2022-08-18T03:17:10.798Z,5.10
2022-08-18T03:19:39.417Z,5.43
2022-08-18T03:22:27.722Z,5.20
2022-08-18T03:24:58.154Z,5.25
2022-08-18T03:27:27.018Z,5.68
2022-08-18T03:29:58.881Z,5.78
2022-08-18T03:32:27.340Z,4.97
2022-08-18T03:34:55.863Z,5.50
2022-08-18T03:37:24.894Z,5.70
2022-08-18T03:39:53.337Z,4.90
2022-08-18T03:42:21.736Z,4.90
2022-08-18T03:44:50.275Z,4.88
2022-08-18T03:47:20.506Z,5.45
2022-08-18T03:49:49.103Z,5.15
2022-08-18T03:52:18.413Z,5.90
2022-08-18T03:54:46.916Z,5.65
2022-08-18T03:57:15.269Z,5.68
2022-08-18T03:59:44.010Z,5.85
2022-08-18T04:02:13.398Z,6.22
2022-08-18T04:04:43.437Z,5.65
2022-08-18T04:07:14.485Z,5.70
2022-08-18T04:09:43.168Z,5.47
2022-08-18T04:12:16.184Z,6.10
2022-08-18T04:14:48.450Z,5.75
2022-08-18T04:17:17.407Z,6.18
2022-08-18T04:19:47.265Z,6.38
2022-08-18T04:22:18.146Z,6.43
2022-08-18T04:24:49.707Z,7.05
2022-08-18T04:27:19.444Z,6.82
2022-08-18T04:29:48.163Z,6.53
2022-08-18T04:32:17.221Z,6.22
2022-08-18T04:34:47.094Z,7.10
2022-08-18T04:37:16.595Z,6.53
2022-08-18T04:39:45.812Z,6.75
2022-08-18T04:42:14.511Z,6.65
2022-08-18T04:44:42.996Z,6.70
2022-08-18T04:47:13.304Z,6.00
2022-08-18T04:49:43.826Z,6.40
2022-08-18T04:52:38.279Z,6.78
2022-08-18T04:55:11.121Z,6.22
2022-08-18T04:57:39.935Z,7.20
2022-08-18T05:00:13.731Z,5.93
2022-08-18T05:02:42.361Z,6.15
2022-08-18T05:05:11.311Z,5.47
2022-08-18T05:07:46.051Z,6.32
2022-08-18T05:10:17.753Z,5.82
2022-08-18T05:12:49.064Z,5.75
2022-08-18T05:15:19.001Z,5.45
2022-08-18T05:17:50.507Z,5.83
2022-08-18T05:20:19.903Z,5.43
2022-08-18T05:22:49.865Z,4.80
2022-08-18T05:25:18.669Z,5.55
2022-08-18T05:27:47.098Z,5.07
2022-08-18T05:30:15.709Z,5.55
2022-08-18T05:32:49.918Z,5.07
2022-08-18T05:35:24.174Z,5.35
2022-08-18T05:38:07.868Z,5.32
2022-08-18T05:40:37.065Z,5.03
2022-08-18T05:43:06.532Z,4.75
2022-08-18T05:45:35.859Z,4.93
2022-08-18T05:48:04.591Z,4.68
2022-08-18T05:50:36.552Z,5.22
2022-08-18T05:53:14.124Z,4.65
2022-08-18T05:56:07.386Z,4.65
2022-08-18T05:58:40.243Z,4.72
2022-08-18T06:01:14.732Z,5.35
2022-08-18T06:03:47.931Z,4.57
2022-08-18T06:06:20.094Z,4.85
2022-08-18T06:08:55.261Z,5.07
2022-08-18T06:11:23.675Z,5.53
2022-08-18T06:13:59.214Z,5.45
2022-08-18T06:16:40.169Z,5.15
2022-08-18T06:19:23.650Z,5.40
2022-08-18T06:21:59.554Z,5.18
2022-08-18T06:24:37.172Z,5.20
2022-08-18T06:27:12.340Z,6.22
2022-08-18T06:29:54.511Z,5.80
2022-08-18T06:32:36.489Z,5.45
2022-08-18T06:35:19.335Z,5.28
2022-08-18T06:38:13.173Z,5.57
2022-08-18T06:40:43.110Z,5.97
2022-08-18T06:43:15.960Z,6.30
2022-08-18T06:45:48.552Z,6.00
2022-08-18T06:48:26.448Z,5.65
2022-08-18T06:51:00.660Z,6.03
2022-08-18T06:53:57.964Z,6.22
2022-08-18T06:56:35.015Z,5.07
2022-08-18T06:59:18.876Z,5.95
2022-08-18T07:01:50.198Z,4.95
2022-08-18T07:05:01.668Z,5.50
2022-08-18T07:07:39.589Z,5.43
2022-08-18T07:10:32.378Z,5.05
2022-08-18T07:13:25.592Z,5.88
2022-08-18T07:15:55.065Z,5.43
2022-08-18T07:18:27.632Z,5.40
2022-08-18T07:20:58.949Z,6.00
2022-08-18T07:23:33.931Z,5.40
2022-08-18T07:26:15.828Z,5.15
2022-08-18T07:28:50.964Z,5.25
2022-08-18T07:31:42.855Z,4.80
2022-08-18T07:34:16.971Z,5.95
2022-08-18T07:36:51.208Z,5.57
2022-08-18T07:39:28.854Z,5.47
2022-08-18T07:42:11.378Z,5.88
2022-08-18T07:44:51.381Z,5.97
2022-08-18T07:47:23.547Z,5.88
2022-08-18T07:50:17.035Z,6.35
2022-08-18T07:52:51.822Z,7.07
2022-08-18T07:55:33.051Z,5.43
2022-08-18T07:58:16.096Z,5.32
2022-08-18T08:00:59.175Z,4.88
2022-08-18T08:03:39.048Z,5.40
2022-08-18T08:06:15.568Z,5.80
2022-08-18T08:08:48.161Z,5.28
2022-08-18T08:11:29.128Z,5.38
2022-08-18T08:14:08.967Z,5.95
2022-08-18T08:16:50.000Z,5.32
2022-08-18T08:20:02.318Z,5.68
2022-08-18T08:22:37.905Z,6.75
2022-08-18T08:25:42.608Z,5.63
2022-08-18T08:28:13.453Z,5.25
2022-08-18T08:31:09.273Z,5.60
2022-08-18T08:33:53.642Z,4.95
2022-08-18T08:36:26.321Z,6.13
2022-08-18T08:38:59.334Z,5.57
2022-08-18T08:41:34.366Z,5.18
2022-08-18T08:44:09.360Z,5.90
2022-08-18T08:46:47.149Z,5.00
2022-08-18T08:49:29.009Z,5.68
2022-08-18T08:52:04.816Z,5.22
2022-08-18T08:54:42.600Z,5.50
2022-08-18T08:57:15.226Z,5.28
2022-08-18T08:59:47.938Z,5.57
2022-08-18T09:02:48.309Z,6.03
2022-08-18T09:05:23.381Z,5.78
2022-08-18T09:08:18.924Z,6.32
2022-08-18T09:11:23.715Z,5.53
2022-08-18T09:14:27.644Z,6.03
2022-08-18T09:17:15.126Z,5.15
2022-08-18T09:20:05.445Z,5.03
2022-08-18T09:22:42.404Z,5.25
2022-08-18T09:25:13.080Z,5.45
2022-08-18T09:28:09.235Z,5.32
2022-08-18T09:33:55.186Z,5.72
2022-08-18T09:36:35.628Z,5.05
2022-08-18T09:39:47.981Z,5.80
2022-08-18T09:45:43.533Z,5.43
2022-08-18T09:48:31.894Z,5.07
2022-08-18T09:51:24.781Z,5.20
2022-08-18T09:57:27.409Z,5.38
2022-08-18T10:00:33.494Z,5.13
2022-08-18T10:03:16.072Z,5.32
2022-08-18T10:06:12.541Z,5.43
2022-08-18T10:09:36.924Z,5.70
2022-08-18T10:12:29.612Z,4.72
2022-08-18T10:18:42.337Z,4.65
2022-08-18T10:21:17.670Z,4.25
2022-08-18T10:24:08.494Z,5.13
2022-08-18T10:27:23.683Z,4.20
2022-08-18T10:29:59.129Z,4.88
2022-08-18T10:32:54.025Z,4.28
2022-08-18T10:36:11.030Z,4.72
2022-08-18T10:38:46.173Z,4.78
2022-08-18T10:41:25.078Z,5.32
2022-08-18T10:43:57.611Z,5.03
2022-08-18T10:46:31.958Z,4.80
2022-08-18T10:49:07.121Z,4.63
2022-08-18T10:52:15.887Z,4.68
2022-08-18T10:55:14.481Z,4.60
2022-08-18T10:58:23.926Z,5.20
2022-08-18T11:01:12.582Z,5.07
2022-08-18T11:04:00.931Z,4.55
2022-08-18T11:06:51.187Z,5.07
2022-08-18T11:09:26.830Z,5.40
2022-08-18T11:12:00.006Z,4.85
2022-08-18T11:15:22.030Z,4.70
2022-08-18T11:18:10.442Z,4.85
2022-08-18T11:20:43.020Z,4.97
2022-08-18T11:23:17.065Z,5.00
2022-08-18T11:25:46.164Z,4.78
2022-08-18T11:28:18.741Z,4.93
2022-08-18T11:30:50.384Z,5.40
2022-08-18T11:36:11.246Z,4.88
2022-08-18T11:38:57.890Z,5.22
2022-08-18T11:44:25.063Z,5.13
2022-08-18T11:46:57.473Z,4.95
2022-08-18T11:49:37.520Z,5.05
2022-08-18T11:52:29.187Z,4.95
2022-08-18T11:57:59.234Z,5.32
2022-08-18T12:00:48.079Z,4.60
2022-08-18T12:03:24.995Z,5.18
2022-08-18T12:05:58.929Z,4.55
2022-08-18T12:08:56.991Z,4.78
2022-08-18T12:11:33.502Z,5.00
2022-08-18T12:14:30.304Z,5.38
2022-08-18T12:16:59.627Z,4.65
2022-08-18T12:19:39.158Z,5.65
2022-08-18T12:22:19.121Z,5.07
2022-08-18T12:24:51.083Z,5.32
2022-08-18T12:27:31.937Z,4.88
2022-08-18T12:30:02.160Z,5.20
2022-08-18T12:32:48.795Z,5.50
2022-08-18T12:35:26.783Z,5.00
2022-08-18T12:40:47.824Z,4.85
2022-08-18T12:43:17.294Z,4.75
2022-08-18T12:45:48.476Z,4.65
2022-08-18T12:48:22.535Z,5.95
2022-08-18T12:53:58.469Z,5.43
2022-08-18T12:56:31.100Z,5.25
2022-08-18T12:59:04.282Z,5.00
2022-08-18T13:01:34.103Z,5.65
2022-08-18T13:04:12.417Z,5.63
2022-08-18T13:07:00.564Z,5.07
2022-08-18T13:09:34.614Z,5.03
2022-08-18T13:12:17.345Z,5.07
2022-08-18T13:14:46.185Z,4.82
2022-08-18T13:17:30.614Z,5.15
2022-08-18T13:20:06.448Z,5.22
2022-08-18T13:22:36.429Z,5.07
2022-08-18T13:25:07.629Z,5.03
2022-08-18T13:27:37.646Z,4.60
2022-08-18T13:30:29.921Z,5.38
2022-08-18T13:33:02.558Z,4.95
2022-08-18T13:35:37.913Z,5.40
2022-08-18T13:38:14.094Z,5.82
2022-08-18T13:40:48.599Z,5.50
2022-08-18T13:43:18.700Z,5.38
2022-08-18T13:45:53.378Z,5.75
2022-08-18T13:48:25.944Z,4.93
2022-08-18T13:50:56.316Z,5.40
2022-08-18T13:53:27.417Z,5.07
2022-08-18T13:55:59.787Z,6.28
2022-08-18T13:58:29.396Z,5.07
2022-08-18T14:03:50.120Z,5.78
2022-08-18T14:06:22.965Z,5.47
2022-08-18T14:08:53.508Z,4.93
2022-08-18T14:11:27.709Z,5.68
2022-08-18T14:14:05.874Z,5.63
2022-08-18T14:16:35.967Z,5.70
2022-08-18T14:19:28.565Z,5.63
2022-08-18T14:22:15.955Z,5.30
2022-08-18T14:25:03.348Z,5.43
2022-08-18T14:27:41.216Z,4.82
2022-08-18T14:30:27.296Z,5.60
2022-08-18T14:33:03.518Z,5.70
2022-08-18T14:36:04.710Z,5.90
2022-08-18T14:38:21.247Z,5.40
2022-08-18T14:40:50.155Z,5.35
2022-08-18T14:43:24.879Z,5.53
2022-08-18T14:45:58.248Z,5.75
2022-08-18T14:48:27.571Z,5.60
2022-08-18T14:50:58.988Z,5.95
2022-08-18T14:53:34.337Z,5.50
2022-08-18T14:56:02.761Z,5.38
2022-08-18T14:58:34.144Z,5.70
2022-08-18T15:01:08.286Z,5.38
2022-08-18T15:03:37.875Z,4.85
2022-08-18T15:06:17.041Z,5.38
2022-08-18T15:08:47.119Z,5.90
2022-08-18T15:11:17.307Z,5.30
2022-08-18T15:13:47.348Z,5.03
2022-08-18T15:16:17.903Z,5.25
2022-08-18T15:18:47.805Z,6.00
2022-08-18T15:21:35.332Z,5.22
2022-08-18T15:24:25.763Z,5.30
2022-08-18T15:26:57.417Z,5.63
2022-08-18T15:29:29.521Z,5.15
2022-08-18T15:32:05.156Z,4.95
2022-08-18T15:34:46.153Z,5.20
2022-08-18T15:37:19.421Z,5.30
2022-08-18T15:39:55.538Z,5.60
2022-08-18T15:42:25.007Z,5.13
2022-08-18T15:44:54.762Z,5.65
2022-08-18T15:47:25.493Z,4.65
2022-08-18T15:49:55.093Z,4.93
2022-08-18T15:52:26.234Z,4.80
2022-08-18T15:54:58.433Z,5.07
2022-08-18T15:57:38.919Z,5.47
2022-08-18T16:00:12.907Z,5.32
2022-08-18T16:02:44.796Z,4.97
2022-08-18T16:05:23.104Z,5.10
2022-08-18T16:07:56.506Z,4.85
2022-08-18T16:10:32.792Z,5.15
2022-08-18T16:13:04.690Z,4.80
2022-08-18T16:15:42.405Z,5.88
2022-08-18T16:18:12.407Z,5.30
2022-08-18T16:20:41.566Z,5.10
2022-08-18T16:23:10.051Z,5.38
2022-08-18T16:25:39.413Z,5.47
2022-08-18T16:28:08.050Z,5.10
2022-08-18T16:30:38.168Z,6.22
2022-08-18T16:33:08.177Z,5.28
2022-08-18T16:35:37.613Z,5.53
2022-08-18T16:38:08.963Z,5.35
2022-08-18T16:40:38.342Z,5.40
2022-08-18T16:43:07.389Z,5.60
2022-08-18T16:45:42.986Z,5.43
2022-08-18T16:48:16.658Z,5.13
2022-08-18T16:50:46.448Z,5.88
2022-08-18T16:53:14.979Z,5.05
2022-08-18T16:55:49.025Z,5.50
2022-08-18T16:58:35.682Z,5.50
2022-08-18T17:01:22.994Z,5.75
2022-08-18T17:04:13.864Z,5.40
2022-08-18T17:06:48.823Z,5.18
2022-08-18T17:09:17.892Z,5.35
2022-08-18T17:11:48.155Z,5.25
2022-08-18T17:14:21.051Z,5.95
2022-08-18T17:16:54.931Z,5.32
2022-08-18T17:19:23.856Z,5.45
2022-08-18T17:21:52.336Z,5.68
2022-08-18T17:24:31.959Z,4.78
2022-08-18T17:27:22.833Z,5.20
2022-08-18T17:30:03.108Z,5.30
2022-08-18T17:32:41.935Z,5.13
2022-08-18T17:35:15.327Z,5.55
2022-08-18T17:37:49.417Z,5.85
2022-08-18T17:40:22.293Z,5.32
2022-08-18T17:43:00.037Z,6.18
2022-08-18T17:45:32.036Z,5.28
2022-08-18T17:48:23.682Z,6.55
2022-08-18T17:51:19.471Z,5.70
2022-08-18T17:53:48.276Z,5.50
2022-08-18T17:56:22.508Z,5.63
2022-08-18T17:58:57.006Z,5.57
2022-08-18T18:01:27.024Z,6.35
2022-08-18T18:04:01.190Z,6.20
2022-08-18T18:06:38.149Z,6.68
2022-08-18T18:09:08.939Z,6.53
2022-08-18T18:11:40.355Z,6.47
2022-08-18T18:14:26.816Z,6.30
2022-08-18T18:17:08.290Z,6.97
2022-08-18T18:19:40.015Z,6.60
2022-08-18T18:22:11.601Z,7.13
2022-08-18T18:24:53.660Z,6.60
2022-08-18T18:27:33.546Z,6.45
2022-08-18T18:30:06.445Z,6.72
2022-08-18T18:32:59.064Z,6.55
2022-08-18T18:35:34.115Z,6.30
2022-08-18T18:38:06.499Z,5.82
2022-08-18T18:40:38.027Z,7.00
2022-08-18T18:43:29.077Z,6.22
2022-08-18T18:46:10.042Z,6.00
2022-08-18T18:48:52.021Z,7.38
2022-08-18T18:51:33.522Z,6.22
2022-08-18T18:54:12.712Z,5.78
2022-08-18T18:56:46.734Z,6.70
2022-08-18T18:59:26.788Z,6.82
2022-08-18T19:02:29.485Z,6.55
2022-08-18T19:05:07.901Z,6.30
2022-08-18T19:07:47.721Z,5.63
2022-08-18T19:10:20.186Z,6.93
2022-08-18T19:12:55.517Z,5.85
2022-08-18T19:15:26.936Z,6.13
2022-08-18T19:18:00.063Z,6.63
2022-08-18T19:20:32.767Z,6.38
2022-08-18T19:23:07.989Z,5.93
2022-08-18T19:25:42.828Z,7.10
2022-08-18T19:28:19.370Z,6.13
2022-08-18T19:30:53.927Z,6.32
2022-08-18T19:33:28.630Z,6.15
2022-08-18T19:36:07.698Z,5.47
2022-08-18T19:38:51.251Z,6.05
2022-08-18T19:41:30.702Z,5.50
2022-08-18T19:44:07.740Z,5.25
2022-08-18T19:46:48.750Z,5.40
2022-08-18T19:49:28.008Z,5.63
2022-08-18T19:52:00.638Z,5.45
2022-08-18T19:54:50.948Z,5.25
2022-08-18T19:57:33.236Z,5.43
2022-08-18T20:00:15.072Z,5.85
2022-08-18T20:03:17.832Z,5.50
2022-08-18T20:06:14.213Z,4.95
2022-08-18T20:09:14.108Z,5.57
2022-08-18T20:12:11.248Z,5.43
2022-08-18T20:14:42.546Z,5.70
2022-08-18T20:17:22.601Z,6.03
2022-08-18T20:20:14.672Z,4.90
2022-08-18T20:22:46.980Z,5.15
2022-08-18T20:25:50.874Z,4.80
2022-08-18T20:28:41.825Z,5.32
2022-08-18T20:31:15.951Z,5.53
2022-08-18T20:34:06.543Z,5.45
2022-08-18T20:36:42.843Z,5.10
2022-08-18T20:39:43.852Z,5.22
2022-08-18T20:42:42.987Z,4.53
2022-08-18T20:45:42.519Z,5.15
2022-08-18T20:48:42.318Z,5.97
2022-08-18T20:51:14.971Z,5.57
2022-08-18T20:54:02.350Z,5.63
2022-08-18T20:56:57.093Z,4.78
2022-08-18T20:59:32.876Z,5.55
2022-08-18T21:02:07.434Z,5.40
2022-08-18T21:04:48.454Z,5.47
2022-08-18T21:07:36.499Z,6.05
2022-08-18T21:10:13.588Z,5.60
2022-08-18T21:12:53.785Z,5.55
2022-08-18T21:15:35.678Z,5.22
2022-08-18T21:18:09.698Z,5.53
2022-08-18T21:20:38.251Z,10.40
2022-08-18T21:23:09.571Z,6.55
2022-08-18T21:25:42.628Z,10.25
2022-08-18T21:28:13.232Z,7.28
2022-08-18T21:31:42.035Z,5.40
2022-08-18T21:33:51.244Z,5.97
2022-08-18T21:36:20.750Z,5.82
2022-08-18T21:38:58.463Z,6.20
2022-08-18T21:41:34.180Z,10.85
2022-08-18T21:44:07.392Z,5.82
2022-08-18T21:46:36.045Z,5.95
2022-08-18T21:49:06.606Z,6.57
2022-08-18T21:51:48.816Z,5.97
2022-08-18T21:54:22.324Z,5.72
2022-08-18T21:57:17.538Z,12.57
2022-08-18T22:00:19.703Z,6.68
2022-08-18T22:02:52.105Z,6.63
2022-08-18T22:05:59.142Z,6.03
2022-08-18T22:08:51.709Z,5.70
2022-08-18T22:12:00.661Z,10.48
2022-08-18T22:14:53.661Z,6.60
2022-08-18T22:17:31.644Z,6.50
2022-08-18T22:20:33.391Z,13.15
2022-08-18T22:23:26.333Z,7.63
2022-08-18T22:26:05.815Z,9.32
2022-08-18T22:28:43.319Z,8.65
2022-08-18T22:31:11.712Z,7.57
2022-08-18T22:33:40.557Z,5.95
2022-08-18T22:36:09.547Z,6.20
2022-08-18T22:38:40.921Z,6.40
2022-08-18T22:41:09.788Z,7.35
2022-08-18T22:43:38.184Z,6.50
2022-08-18T22:46:06.863Z,6.82
2022-08-18T22:48:35.397Z,6.78
2022-08-18T22:51:03.885Z,6.93
2022-08-18T22:53:32.457Z,6.28
2022-08-18T22:56:06.092Z,6.63
2022-08-18T22:58:36.400Z,6.03
2022-08-18T23:01:09.124Z,6.25
2022-08-18T23:03:42.234Z,7.05
2022-08-18T23:06:11.782Z,7.00
2022-08-18T23:08:54.769Z,6.93
2022-08-18T23:11:26.503Z,7.32
2022-08-18T23:13:56.298Z,6.93
2022-08-18T23:16:32.601Z,6.63
2022-08-18T23:19:02.014Z,7.47
2022-08-18T23:21:35.801Z,6.43
2022-08-18T23:24:07.179Z,7.35
2022-08-18T23:26:37.936Z,6.40
2022-08-18T23:29:07.757Z,6.82
2022-08-18T23:31:36.222Z,6.88
2022-08-18T23:34:05.665Z,6.43
2022-08-18T23:36:41.204Z,6.63
2022-08-18T23:39:12.721Z,6.72
2022-08-18T23:41:51.503Z,6.47
2022-08-18T23:44:19.824Z,6.80
2022-08-18T23:46:56.422Z,6.53
2022-08-18T23:49:24.837Z,6.28
2022-08-18T23:51:56.113Z,6.70
2022-08-18T23:54:31.172Z,6.40
2022-08-18T23:57:04.315Z,6.70
2022-08-18T23:59:32.884Z,6.15
